Time;durP1;ratioP1;P1;durP2;ratioP2;P2;SDS_P1;SDS_P2;PMS_P1;PMS_P2;Temp;Humidity;BMP_temperature;BMP_pressure;BME280_temperature;BME280_humidity;BME280_pressure;Samples;Min_cycle;Max_cycle;Signal;HPM_P1;HPM_P2
2022/12/20 00:00:49;;;;;;;18.70;16.70;;;4.80;99.90;;;;;;6088382;23;20188;-71
2022/12/20 00:03:16;;;;;;;19.00;16.63;;;4.80;99.90;;;;;;6088690;23;20276;-71
2022/12/20 00:05:44;;;;;;;16.50;14.60;;;4.80;99.90;;;;;;6088506;23;20215;-71
2022/12/20 00:08:11;;;;;;;18.45;16.55;;;4.70;99.90;;;;;;6087890;23;20204;-71
2022/12/20 00:10:41;;;;;;;16.92;15.18;;;4.70;99.90;;;;;;6088528;23;20196;-71
2022/12/20 00:13:09;;;;;;;17.55;15.75;;;4.70;99.90;;;;;;6086599;23;20762;-71
2022/12/20 00:15:36;;;;;;;19.42;16.60;;;4.70;99.90;;;;;;6088182;23;20254;-71
2022/12/20 00:18:04;;;;;;;18.30;16.38;;;4.60;99.90;;;;;;6090694;23;20196;-71
2022/12/20 00:20:31;;;;;;;16.65;14.95;;;4.60;99.90;;;;;;6092522;23;20263;-71
2022/12/20 00:22:59;;;;;;;18.70;16.90;;;4.60;99.90;;;;;;6083843;23;20618;-71
2022/12/20 00:25:27;;;;;;;17.25;15.52;;;4.50;99.90;;;;;;6086417;23;20275;-71
2022/12/20 00:27:54;;;;;;;16.80;14.93;;;4.50;99.90;;;;;;6087071;23;20208;-71
2022/12/20 00:30:21;;;;;;;19.45;16.70;;;4.40;99.90;;;;;;6084096;23;20207;-71
2022/12/20 00:32:48;;;;;;;18.92;16.00;;;4.40;99.90;;;;;;6082002;23;20216;-71
2022/12/20 00:35:15;;;;;;;17.40;15.60;;;4.40;99.90;;;;;;6088980;23;20204;-72
2022/12/20 00:37:42;;;;;;;19.52;15.77;;;4.30;99.90;;;;;;6080555;23;20274;-71
2022/12/20 00:40:11;;;;;;;17.90;16.15;;;4.30;99.90;;;;;;6078534;23;20318;-71
2022/12/20 00:42:38;;;;;;;18.52;16.63;;;4.40;99.90;;;;;;6084374;23;20199;-71
2022/12/20 00:45:06;;;;;;;17.40;15.60;;;4.30;99.90;;;;;;6087808;23;20200;-71
2022/12/20 00:47:33;;;;;;;18.75;16.42;;;4.30;99.90;;;;;;6084733;23;20216;-71
2022/12/20 00:50:00;;;;;;;20.55;16.98;;;4.20;99.90;;;;;;6086937;23;20198;-71
2022/12/20 00:52:28;;;;;;;20.45;17.40;;;4.20;99.90;;;;;;6089042;23;20223;-71
2022/12/20 00:54:55;;;;;;;20.08;17.27;;;4.20;99.90;;;;;;6088150;23;20615;-71
2022/12/20 00:57:24;;;;;;;18.85;16.20;;;4.10;99.90;;;;;;6086679;23;20215;-71
2022/12/20 00:59:51;;;;;;;21.02;18.05;;;4.10;99.90;;;;;;6085206;23;20188;-71
2022/12/20 01:02:18;;;;;;;22.77;17.17;;;4.20;99.90;;;;;;6089176;23;20313;-71
2022/12/20 01:04:45;;;;;;;19.75;17.75;;;4.10;99.90;;;;;;6088305;23;20211;-71
2022/12/20 01:07:12;;;;;;;21.27;18.00;;;4.10;99.90;;;;;;6091981;23;20199;-71
2022/12/20 01:09:39;;;;;;;19.42;16.90;;;4.10;99.90;;;;;;6083358;23;20205;-71
2022/12/20 01:12:07;;;;;;;20.92;18.48;;;4.10;99.90;;;;;;6086717;23;20211;-71
2022/12/20 01:14:35;;;;;;;19.60;17.15;;;4.10;99.90;;;;;;6089090;23;20196;-71
2022/12/20 01:17:02;;;;;;;18.55;16.55;;;4.10;99.90;;;;;;6082002;23;20200;-70
2022/12/20 01:19:29;;;;;;;19.10;16.30;;;4.10;99.90;;;;;;6087587;23;20227;-71
2022/12/20 01:21:56;;;;;;;17.83;15.95;;;4.10;99.90;;;;;;6083483;23;20192;-71
2022/12/20 01:24:24;;;;;;;18.67;16.85;;;4.10;99.90;;;;;;6082746;23;20617;-71
2022/12/20 01:26:51;;;;;;;17.95;16.13;;;4.10;99.90;;;;;;6086098;23;21454;-71
2022/12/20 01:29:18;;;;;;;19.02;17.02;;;4.10;99.90;;;;;;6087552;23;20246;-71
2022/12/20 01:31:46;;;;;;;18.77;16.77;;;4.00;99.90;;;;;;6087674;23;20274;-72
2022/12/20 01:34:14;;;;;;;18.17;16.08;;;4.00;99.90;;;;;;6088299;23;20210;-71
2022/12/20 01:36:41;;;;;;;19.02;17.02;;;4.00;99.90;;;;;;6087884;23;20632;-71
2022/12/20 01:39:12;;;;;;;21.08;17.98;;;4.00;99.90;;;;;;6081905;23;20188;-72
2022/12/20 01:41:39;;;;;;;18.20;16.00;;;4.00;99.90;;;;;;6075479;23;20196;-71
2022/12/20 01:44:45;;;;;;;20.35;17.60;;;4.00;99.90;;;;;;6085368;23;20199;-71
2022/12/20 01:47:14;;;;;;;16.90;15.20;;;4.00;99.90;;;;;;6087291;23;20198;-71
2022/12/20 01:49:45;;;;;;;18.60;15.93;;;4.00;99.90;;;;;;6088586;23;20279;-71
2022/12/20 01:52:15;;;;;;;18.92;16.92;;;3.90;99.90;;;;;;6087268;23;20591;-71
2022/12/20 01:54:48;;;;;;;18.48;16.45;;;4.00;99.90;;;;;;6086933;23;20199;-71
2022/12/20 01:57:19;;;;;;;17.98;16.08;;;4.00;99.90;;;;;;6083951;23;20267;-71
2022/12/20 01:59:49;;;;;;;17.60;15.73;;;4.00;99.90;;;;;;6087412;23;20200;-71
2022/12/20 02:02:18;;;;;;;18.10;15.68;;;4.10;99.90;;;;;;6085756;23;20194;-71
2022/12/20 02:04:45;;;;;;;17.35;15.25;;;4.10;99.90;;;;;;6088152;23;20271;-71
2022/12/20 02:07:18;;;;;;;17.60;15.77;;;4.10;99.90;;;;;;6082141;23;20183;-71
2022/12/20 02:09:45;;;;;;;17.70;15.82;;;4.10;99.90;;;;;;6076740;23;20653;-71
2022/12/20 02:12:17;;;;;;;18.67;16.35;;;4.00;99.90;;;;;;6085527;23;20319;-71
2022/12/20 02:14:59;;;;;;;19.65;16.80;;;4.00;99.90;;;;;;6082505;23;20204;-71
2022/12/20 02:17:40;;;;;;;17.75;15.82;;;4.10;99.90;;;;;;6086969;23;20238;-71
2022/12/20 02:20:45;;;;;;;19.33;16.42;;;4.10;99.90;;;;;;6087190;23;20254;-71
2022/12/20 02:23:55;;;;;;;16.92;15.23;;;4.10;99.90;;;;;;6086748;23;20216;-71
2022/12/20 02:26:43;;;;;;;18.77;16.80;;;4.10;99.90;;;;;;6083961;23;20203;-71
2022/12/20 02:29:23;;;;;;;19.10;16.38;;;4.10;99.90;;;;;;6081818;23;20287;-71
2022/12/20 02:31:57;;;;;;;18.33;15.70;;;4.10;99.90;;;;;;6084981;23;20212;-71
2022/12/20 02:34:27;;;;;;;18.02;16.35;;;4.00;99.90;;;;;;6059430;23;20366;-71
2022/12/20 02:36:54;;;;;;;19.10;17.10;;;4.00;99.90;;;;;;6084290;23;20267;-71
2022/12/20 02:39:22;;;;;;;18.92;16.77;;;4.00;99.90;;;;;;6087171;23;20276;-71
2022/12/20 02:41:53;;;;;;;19.08;16.83;;;4.00;99.90;;;;;;6083340;23;20196;-71
2022/12/20 02:47:16;;;;;;;17.98;15.77;;;4.10;99.90;;;;;;6084313;23;20203;-72
2022/12/20 02:49:47;;;;;;;18.52;16.65;;;4.00;99.90;;;;;;6087713;23;20268;-71
2022/12/20 02:52:16;;;;;;;16.95;15.13;;;4.00;99.90;;;;;;6082364;23;20259;-71
2022/12/20 02:54:43;;;;;;;19.40;17.25;;;4.10;99.90;;;;;;6082358;23;20250;-72
2022/12/20 02:57:18;;;;;;;19.17;16.40;;;4.00;99.90;;;;;;6093872;23;20266;-72
2022/12/20 02:59:53;;;;;;;19.85;16.50;;;4.00;99.90;;;;;;6086204;23;20270;-72
2022/12/20 03:02:23;;;;;;;18.33;16.35;;;4.00;99.90;;;;;;6088613;23;20242;-72
2022/12/20 03:04:51;;;;;;;17.83;15.68;;;4.00;99.90;;;;;;6088081;23;20266;-72
2022/12/20 03:07:18;;;;;;;18.90;16.90;;;3.90;99.90;;;;;;6086928;23;20271;-72
2022/12/20 03:09:45;;;;;;;18.15;16.25;;;3.90;99.90;;;;;;6087412;23;20850;-72
2022/12/20 03:12:14;;;;;;;19.10;17.13;;;4.00;99.90;;;;;;6088255;23;20298;-71
2022/12/20 03:14:42;;;;;;;18.33;16.42;;;4.00;99.90;;;;;;6082604;23;20200;-71
2022/12/20 03:17:09;;;;;;;19.83;16.65;;;4.00;99.90;;;;;;6089257;23;20251;-72
2022/12/20 03:19:38;;;;;;;17.55;15.80;;;4.00;99.90;;;;;;6105723;23;20187;-71
2022/12/20 03:22:05;;;;;;;17.70;15.73;;;4.00;99.90;;;;;;6093297;23;20191;-71
2022/12/20 03:24:32;;;;;;;18.20;16.30;;;4.00;99.90;;;;;;6113823;23;20192;-71
2022/12/20 03:26:59;;;;;;;17.30;15.43;;;4.00;99.90;;;;;;6115247;23;20192;-72
2022/12/20 03:29:27;;;;;;;17.70;15.68;;;4.00;99.90;;;;;;6109780;23;20227;-71
2022/12/20 03:31:53;;;;;;;18.50;15.88;;;4.00;99.90;;;;;;6115137;23;20199;-72
2022/12/20 03:34:21;;;;;;;17.80;14.73;;;4.00;99.90;;;;;;6114880;23;20191;-72
2022/12/20 03:36:49;;;;;;;17.30;15.50;;;4.00;99.90;;;;;;6114812;23;20218;-72
2022/12/20 03:39:16;;;;;;;18.15;16.23;;;4.00;99.90;;;;;;6122144;22;20271;-72
2022/12/20 03:41:43;;;;;;;17.83;15.80;;;4.00;99.90;;;;;;6116812;23;20598;-72
2022/12/20 03:44:10;;;;;;;16.77;15.10;;;4.00;99.90;;;;;;6095983;23;20250;-72
2022/12/20 03:46:37;;;;;;;18.70;16.17;;;4.00;99.90;;;;;;6116621;23;20192;-72
2022/12/20 03:49:04;;;;;;;17.02;15.23;;;4.10;99.90;;;;;;6112172;23;20246;-72
2022/12/20 03:51:31;;;;;;;17.20;14.73;;;4.10;99.90;;;;;;6117758;23;20662;-71
2022/12/20 03:54:00;;;;;;;16.05;14.40;;;4.10;99.90;;;;;;6119729;23;20612;-72
2022/12/20 03:56:27;;;;;;;16.50;14.80;;;4.20;99.90;;;;;;6117736;23;20286;-72
2022/12/20 03:58:54;;;;;;;17.85;15.30;;;4.20;99.90;;;;;;6107613;23;20524;-71
2022/12/20 04:01:23;;;;;;;15.43;13.82;;;4.20;99.90;;;;;;6090770;23;20195;-71
2022/12/20 04:03:51;;;;;;;16.58;14.82;;;4.20;99.90;;;;;;6116273;23;20209;-71
2022/12/20 04:06:19;;;;;;;16.27;14.48;;;4.20;99.90;;;;;;6117359;23;20234;-71
2022/12/20 04:08:46;;;;;;;14.82;13.32;;;4.30;99.90;;;;;;6109812;23;20214;-72
2022/12/20 04:11:18;;;;;;;14.93;13.32;;;4.40;99.90;;;;;;6119594;23;20226;-72
2022/12/20 04:13:47;;;;;;;14.25;12.75;;;4.50;99.90;;;;;;6110064;23;20190;-72
2022/12/20 04:16:16;;;;;;;14.45;13.05;;;4.60;99.90;;;;;;6117580;23;20192;-72
2022/12/20 04:18:43;;;;;;;15.15;13.65;;;4.70;99.90;;;;;;6116708;23;20241;-72
2022/12/20 04:21:11;;;;;;;14.80;13.18;;;4.70;99.90;;;;;;6117722;23;20287;-72
2022/12/20 04:23:40;;;;;;;14.68;13.18;;;4.80;99.90;;;;;;6117258;23;20241;-71
2022/12/20 04:26:09;;;;;;;13.40;11.40;;;4.80;99.90;;;;;;6110699;23;20191;-71
2022/12/20 04:28:37;;;;;;;13.93;12.52;;;4.80;99.90;;;;;;6110234;23;20215;-71
2022/12/20 04:31:05;;;;;;;13.82;12.52;;;4.80;99.90;;;;;;6114686;23;20198;-72
2022/12/20 04:33:32;;;;;;;14.43;13.00;;;4.80;99.90;;;;;;6116075;23;20196;-72
2022/12/20 04:35:59;;;;;;;14.38;12.25;;;4.80;99.90;;;;;;6106854;23;20670;-71
2022/12/20 04:38:26;;;;;;;13.55;12.10;;;4.90;99.90;;;;;;6104871;23;20282;-71
2022/12/20 04:40:55;;;;;;;13.10;11.73;;;4.90;99.90;;;;;;6098736;23;20331;-72
2022/12/20 04:43:23;;;;;;;14.75;11.60;;;4.90;99.90;;;;;;6112993;23;20260;-72
2022/12/20 04:45:55;;;;;;;12.48;11.23;;;4.80;99.90;;;;;;6111775;23;20593;-72
2022/12/20 04:48:23;;;;;;;12.57;11.38;;;4.90;99.90;;;;;;6115708;23;20256;-72
2022/12/20 04:50:51;;;;;;;13.18;11.75;;;4.90;99.90;;;;;;6103442;23;20191;-71
2022/12/20 04:56:05;;;;;;;13.88;12.52;;;5.00;99.90;;;;;;6113359;23;20195;-80
2022/12/20 04:58:32;;;;;;;13.30;12.00;;;5.00;99.90;;;;;;6110455;23;20675;-79
2022/12/20 05:01:01;;;;;;;13.43;12.07;;;5.00;99.90;;;;;;6081812;23;20262;-80
2022/12/20 05:03:28;;;;;;;13.05;11.50;;;5.00;99.90;;;;;;6105811;23;20275;-73
2022/12/20 05:05:55;;;;;;;12.85;11.50;;;5.00;99.90;;;;;;6113338;23;20629;-73
2022/12/20 05:08:23;;;;;;;15.15;12.05;;;5.10;99.90;;;;;;6108605;23;20195;-72
2022/12/20 05:10:50;;;;;;;12.90;11.60;;;5.10;99.90;;;;;;6105723;23;20214;-72
2022/12/20 05:13:17;;;;;;;14.38;11.95;;;5.00;99.90;;;;;;6116881;23;20191;-72
2022/12/20 05:15:44;;;;;;;13.60;12.30;;;5.00;99.90;;;;;;6115387;23;20191;-73
2022/12/20 05:18:12;;;;;;;13.75;12.15;;;5.00;99.90;;;;;;6114364;23;20681;-72
2022/12/20 05:20:40;;;;;;;13.25;11.98;;;5.00;99.90;;;;;;6094600;23;20192;-72
2022/12/20 05:28:51;;;;;;;14.10;12.55;;;5.00;99.90;;;;;;6088478;23;20208;-72
2022/12/20 05:31:19;;;;;;;12.70;11.32;;;4.90;99.90;;;;;;6112542;23;20202;-71
2022/12/20 05:33:47;;;;;;;12.35;10.45;;;5.00;99.90;;;;;;6110872;23;20195;-72
2022/12/20 05:36:14;;;;;;;11.95;10.75;;;5.20;99.90;;;;;;6109160;23;20203;-72
2022/12/20 05:38:42;;;;;;;12.43;10.93;;;5.10;99.90;;;;;;6113060;23;20732;-72
2022/12/20 05:41:09;;;;;;;13.38;10.70;;;5.10;99.90;;;;;;6100760;23;20187;-72
2022/12/20 05:43:36;;;;;;;11.27;10.15;;;5.10;99.90;;;;;;6116689;23;20191;-72
2022/12/20 05:46:04;;;;;;;11.70;10.60;;;5.10;99.90;;;;;;6116147;23;20202;-71
2022/12/20 05:48:31;;;;;;;12.68;11.27;;;5.10;99.90;;;;;;6107133;23;20195;-72
2022/12/20 05:51:00;;;;;;;13.45;11.30;;;5.10;99.90;;;;;;6110464;23;20637;-72
2022/12/20 05:53:29;;;;;;;12.65;11.32;;;5.20;99.90;;;;;;6109558;23;20562;-72
2022/12/20 05:55:56;;;;;;;12.77;10.85;;;5.20;99.90;;;;;;6117156;23;20263;-72
2022/12/20 05:58:23;;;;;;;11.90;10.45;;;5.20;99.90;;;;;;6114097;23;20192;-71
2022/12/20 06:00:50;;;;;;;10.68;9.60;;;5.20;99.90;;;;;;6110412;23;20271;-72
2022/12/20 06:03:17;;;;;;;11.75;10.50;;;5.20;99.90;;;;;;6107732;23;20210;-71
2022/12/20 06:05:45;;;;;;;11.25;10.15;;;5.30;99.90;;;;;;6109855;23;20196;-72
2022/12/20 06:08:14;;;;;;;11.68;10.48;;;5.30;99.90;;;;;;6105424;23;20215;-73
2022/12/20 06:10:41;;;;;;;11.60;10.50;;;5.30;99.90;;;;;;6099780;23;20260;-70
2022/12/20 06:13:12;;;;;;;11.15;10.15;;;5.30;99.90;;;;;;6102949;23;20215;-72
2022/12/20 06:15:39;;;;;;;11.10;10.00;;;5.20;99.90;;;;;;6097477;23;20266;-71
2022/12/20 06:18:07;;;;;;;11.38;10.18;;;5.30;99.90;;;;;;6118463;23;20194;-71
2022/12/20 06:20:35;;;;;;;12.70;10.25;;;5.30;99.90;;;;;;6111735;23;20192;-71
2022/12/20 06:23:03;;;;;;;9.82;8.82;;;5.30;99.90;;;;;;6112510;23;20275;-71
2022/12/20 06:25:31;;;;;;;11.27;10.10;;;5.30;99.90;;;;;;6097029;23;20195;-71
2022/12/20 06:27:58;;;;;;;10.00;9.10;;;5.40;99.90;;;;;;6111187;23;20215;-72
2022/12/20 06:30:26;;;;;;;11.43;10.23;;;5.40;99.90;;;;;;6116211;23;20264;-72
2022/12/20 06:32:53;;;;;;;11.00;9.90;;;5.40;99.90;;;;;;6111786;23;20262;-72
2022/12/20 06:35:20;;;;;;;9.90;8.90;;;5.50;99.90;;;;;;6103241;23;20211;-72
2022/12/20 06:37:47;;;;;;;11.13;9.95;;;5.40;99.90;;;;;;6111473;23;20202;-72
2022/12/20 06:40:14;;;;;;;10.80;9.80;;;5.50;99.90;;;;;;6101035;23;20207;-72
2022/12/20 06:42:43;;;;;;;9.70;8.60;;;5.50;99.90;;;;;;6118720;23;20195;-73
2022/12/20 06:45:11;;;;;;;9.35;8.45;;;5.50;99.90;;;;;;6087813;23;20191;-72
2022/12/20 06:47:39;;;;;;;10.20;9.18;;;5.40;99.90;;;;;;6114485;23;20199;-72
2022/12/20 06:50:07;;;;;;;11.80;10.63;;;5.50;99.90;;;;;;6086754;23;20544;-72
2022/12/20 06:52:34;;;;;;;10.90;9.68;;;5.50;99.90;;;;;;6093797;23;20196;-72
2022/12/20 06:55:01;;;;;;;10.70;9.60;;;5.40;99.90;;;;;;6107789;23;20268;-72
2022/12/20 06:57:28;;;;;;;10.82;9.73;;;5.40;99.90;;;;;;6084890;23;20260;-72
2022/12/20 06:59:57;;;;;;;10.77;9.68;;;5.50;99.90;;;;;;6112766;23;20187;-71
2022/12/20 07:02:24;;;;;;;11.05;9.65;;;5.40;99.90;;;;;;6105803;23;20267;-72
2022/12/20 07:04:51;;;;;;;12.07;10.55;;;5.40;99.90;;;;;;6109723;23;20223;-72
2022/12/20 07:07:19;;;;;;;11.32;10.13;;;5.40;99.90;;;;;;6100521;23;20206;-72
2022/12/20 07:09:46;;;;;;;10.77;9.77;;;5.40;99.90;;;;;;6101352;23;20212;-72
2022/12/20 07:12:14;;;;;;;10.90;9.63;;;5.40;99.90;;;;;;6108470;23;20226;-72
2022/12/20 07:14:41;;;;;;;12.57;10.50;;;5.40;99.90;;;;;;6093037;23;20264;-72
2022/12/20 07:17:10;;;;;;;11.38;10.23;;;5.40;99.90;;;;;;6119104;23;20279;-72
2022/12/20 07:19:37;;;;;;;11.73;10.50;;;5.40;99.90;;;;;;6107157;23;20184;-73
2022/12/20 07:22:05;;;;;;;11.10;10.00;;;5.40;99.90;;;;;;6105323;23;20222;-73
2022/12/20 07:24:32;;;;;;;11.02;9.88;;;5.40;99.90;;;;;;6110266;23;20234;-72
2022/12/20 07:27:00;;;;;;;11.75;10.45;;;5.40;99.90;;;;;;6105126;23;20187;-72
2022/12/20 07:29:27;;;;;;;10.52;9.43;;;5.50;99.90;;;;;;6116542;23;20329;-72
2022/12/20 07:31:54;;;;;;;11.75;10.55;;;5.40;99.90;;;;;;6112486;23;20582;-72
2022/12/20 07:34:23;;;;;;;11.60;10.43;;;5.40;99.90;;;;;;6112674;23;20191;-72
2022/12/20 07:36:50;;;;;;;12.88;11.57;;;5.40;99.90;;;;;;6093296;23;20216;-72
2022/12/20 07:39:18;;;;;;;12.13;10.93;;;5.40;99.90;;;;;;6115082;23;20236;-73
2022/12/20 07:41:45;;;;;;;12.20;11.02;;;5.30;99.90;;;;;;6118995;23;20211;-72
2022/12/20 07:44:13;;;;;;;12.60;11.30;;;5.30;99.90;;;;;;6116153;23;20196;-72
2022/12/20 07:46:40;;;;;;;13.23;11.75;;;5.30;99.90;;;;;;6107758;23;20194;-72
2022/12/20 07:49:07;;;;;;;12.13;10.88;;;5.20;99.90;;;;;;6117797;23;20195;-72
2022/12/20 07:51:38;;;;;;;12.85;11.50;;;5.20;99.90;;;;;;6098503;23;20228;-72
2022/12/20 07:54:09;;;;;;;13.52;12.25;;;5.20;99.90;;;;;;6091042;23;20219;-72
2022/12/20 07:56:40;;;;;;;11.88;10.73;;;5.20;99.90;;;;;;6116763;23;20547;-72
2022/12/20 07:59:09;;;;;;;11.98;10.85;;;5.20;99.90;;;;;;6114137;23;20187;-72
2022/12/20 08:01:37;;;;;;;12.40;11.20;;;5.20;99.90;;;;;;6110119;23;20558;-72
2022/12/20 08:04:09;;;;;;;12.55;11.27;;;5.20;99.90;;;;;;6109928;23;20222;-72
2022/12/20 08:06:39;;;;;;;12.63;11.43;;;5.30;99.90;;;;;;6117529;23;20194;-72
2022/12/20 08:09:07;;;;;;;13.98;11.30;;;5.20;99.90;;;;;;6116448;23;20267;-72
2022/12/20 08:11:37;;;;;;;12.45;10.40;;;5.20;99.90;;;;;;6089374;23;20772;-72
2022/12/20 08:14:07;;;;;;;12.27;10.98;;;5.20;99.90;;;;;;6111026;23;20188;-72
2022/12/20 08:16:34;;;;;;;11.82;10.63;;;5.20;99.90;;;;;;6107769;23;20291;-72
2022/12/20 08:19:01;;;;;;;12.27;10.98;;;5.30;99.90;;;;;;6075064;23;20192;-71
2022/12/20 08:21:29;;;;;;;11.85;9.38;;;5.20;99.90;;;;;;6110578;23;20214;-72
2022/12/20 08:23:58;;;;;;;11.93;9.18;;;5.30;99.90;;;;;;6102675;23;20285;-72
2022/12/20 08:26:25;;;;;;;10.65;9.55;;;5.30;99.90;;;;;;6096015;23;20203;-72
2022/12/20 08:28:52;;;;;;;11.75;10.55;;;5.40;99.90;;;;;;6116389;23;20194;-71
2022/12/20 08:31:19;;;;;;;10.88;9.75;;;5.50;99.90;;;;;;6114225;23;20648;-72
2022/12/20 08:33:46;;;;;;;10.57;9.55;;;5.50;99.90;;;;;;6117674;23;20272;-72
2022/12/20 08:36:14;;;;;;;12.20;9.95;;;5.50;99.90;;;;;;6116861;23;20195;-71
2022/12/20 08:38:41;;;;;;;10.98;9.27;;;5.60;99.90;;;;;;6114553;23;20298;-71
2022/12/20 08:41:11;;;;;;;12.40;10.07;;;5.60;99.90;;;;;;6107423;23;20200;-71
2022/12/20 08:43:39;;;;;;;11.40;9.85;;;5.60;99.90;;;;;;6114315;23;20870;-72
2022/12/20 08:46:07;;;;;;;10.98;9.82;;;5.60;99.90;;;;;;6109728;23;21152;-71
2022/12/20 08:48:34;;;;;;;10.50;9.43;;;5.60;99.90;;;;;;6112356;23;20226;-72
2022/12/20 08:51:04;;;;;;;12.80;10.85;;;5.60;99.90;;;;;;6113425;23;20211;-71
2022/12/20 08:53:32;;;;;;;11.05;9.90;;;5.60;99.90;;;;;;6106848;23;20226;-71
2022/12/20 08:56:04;;;;;;;10.82;9.70;;;5.60;99.90;;;;;;6105196;23;20249;-72
2022/12/20 08:58:33;;;;;;;10.55;9.48;;;5.60;99.90;;;;;;6110491;23;20202;-71
2022/12/20 09:01:03;;;;;;;11.68;10.23;;;5.60;99.90;;;;;;6088969;23;20187;-72
2022/12/20 09:03:30;;;;;;;10.88;9.80;;;5.70;99.90;;;;;;6109018;23;20198;-71
2022/12/20 09:05:59;;;;;;;10.50;9.32;;;5.70;99.90;;;;;;6125960;23;20192;-72
2022/12/20 09:08:26;;;;;;;10.77;9.40;;;5.80;99.90;;;;;;6109134;23;20214;-71
2022/12/20 09:10:53;;;;;;;10.15;9.10;;;5.90;99.90;;;;;;6116729;23;20211;-71
2022/12/20 09:13:21;;;;;;;9.68;8.77;;;6.00;99.90;;;;;;6099414;23;20195;-71
2022/12/20 09:15:50;;;;;;;9.32;8.45;;;6.00;99.90;;;;;;6107020;23;20187;-71
2022/12/20 09:18:17;;;;;;;9.38;8.27;;;6.10;99.90;;;;;;6105548;23;20215;-72
2022/12/20 09:20:45;;;;;;;9.75;7.80;;;6.20;99.90;;;;;;6107825;23;20185;-71
2022/12/20 09:23:12;;;;;;;9.13;8.23;;;6.20;99.90;;;;;;6113695;23;20642;-71
2022/12/20 09:25:39;;;;;;;8.93;7.68;;;6.20;99.90;;;;;;6099404;23;20188;-72
2022/12/20 09:28:06;;;;;;;8.80;7.90;;;6.30;99.90;;;;;;6116532;23;20207;-71
2022/12/20 09:30:33;;;;;;;8.18;7.47;;;6.40;99.90;;;;;;6112995;23;20216;-72
2022/12/20 09:33:02;;;;;;;8.20;7.40;;;6.50;99.90;;;;;;6082770;23;20612;-71
2022/12/20 09:35:29;;;;;;;9.63;7.95;;;6.50;99.90;;;;;;6091371;23;20211;-72
2022/12/20 09:37:57;;;;;;;9.38;7.50;;;6.60;99.90;;;;;;6096891;23;20286;-71
2022/12/20 09:40:29;;;;;;;8.60;7.80;;;6.70;99.90;;;;;;6111202;23;20673;-71
2022/12/20 09:42:56;;;;;;;8.10;6.55;;;6.70;99.90;;;;;;6116490;23;20657;-72
2022/12/20 09:45:29;;;;;;;8.43;7.20;;;6.80;99.90;;;;;;6117674;23;20192;-71
2022/12/20 09:47:56;;;;;;;7.18;6.57;;;6.80;99.90;;;;;;6114988;23;20653;-71
2022/12/20 09:50:37;;;;;;;8.52;7.72;;;6.80;99.90;;;;;;6109552;23;20483;-72
2022/12/20 09:53:15;;;;;;;8.68;7.78;;;6.80;99.90;;;;;;6117475;23;20227;-71
2022/12/20 09:55:50;;;;;;;9.73;7.45;;;6.90;99.90;;;;;;6116593;23;20226;-71
2022/12/20 09:58:30;;;;;;;8.27;7.55;;;6.90;99.90;;;;;;6105505;23;20297;-72
2022/12/20 10:00:57;;;;;;;9.10;7.47;;;6.90;99.90;;;;;;6119601;23;20188;-72
2022/12/20 10:03:29;;;;;;;7.25;6.55;;;7.00;99.90;;;;;;6107665;23;20616;-72
2022/12/20 10:06:04;;;;;;;7.35;6.75;;;7.00;99.90;;;;;;6117831;23;20242;-72
2022/12/20 10:08:45;;;;;;;7.78;7.00;;;7.00;99.90;;;;;;6088556;23;20215;-72
2022/12/20 10:11:23;;;;;;;8.40;7.60;;;7.10;99.90;;;;;;6119003;23;20203;-72
2022/12/20 10:14:01;;;;;;;7.00;6.35;;;7.20;99.90;;;;;;6116225;23;20195;-72
2022/12/20 10:16:38;;;;;;;7.13;6.40;;;7.20;99.90;;;;;;6087063;23;20265;-72
2022/12/20 10:19:26;;;;;;;7.05;6.35;;;7.30;99.90;;;;;;6109098;23;20188;-72
2022/12/20 10:22:04;;;;;;;7.40;6.70;;;7.40;99.90;;;;;;6114533;23;20185;-72
2022/12/20 10:24:33;;;;;;;7.07;6.38;;;7.40;99.90;;;;;;6112183;23;20197;-73
2022/12/20 10:27:11;;;;;;;11.57;7.72;;;7.50;99.90;;;;;;6090330;23;20713;-72
2022/12/20 10:29:38;;;;;;;7.18;6.35;;;7.50;99.90;;;;;;6094167;23;20197;-72
2022/12/20 10:32:13;;;;;;;7.82;6.60;;;7.60;99.90;;;;;;6099761;23;20206;-72
2022/12/20 10:34:46;;;;;;;8.35;6.88;;;7.60;99.90;;;;;;6105189;23;20191;-73
2022/12/20 10:37:15;;;;;;;7.78;6.97;;;7.60;99.90;;;;;;6091201;23;20201;-72
2022/12/20 10:39:46;;;;;;;7.47;6.68;;;7.70;99.90;;;;;;6115300;23;20187;-72
2022/12/20 10:42:27;;;;;;;8.85;6.85;;;7.80;99.90;;;;;;6094671;23;20268;-72
2022/12/20 10:44:55;;;;;;;6.35;5.70;;;7.90;99.90;;;;;;6111397;23;20334;-73
2022/12/20 10:47:33;;;;;;;7.55;6.15;;;7.90;99.90;;;;;;6105759;23;20189;-70
2022/12/20 10:50:09;;;;;;;6.97;6.10;;;7.90;99.90;;;;;;6106382;23;20284;-72
2022/12/20 10:52:38;;;;;;;6.90;6.30;;;8.00;99.90;;;;;;6102879;23;20623;-72
2022/12/20 10:55:35;;;;;;;7.32;6.05;;;7.90;99.90;;;;;;6114410;23;20190;-71
2022/12/20 10:58:04;;;;;;;6.63;5.93;;;7.90;99.90;;;;;;6114042;23;20183;-73
2022/12/20 11:00:33;;;;;;;6.20;5.60;;;7.90;99.90;;;;;;6104232;23;20187;-71
2022/12/20 11:03:11;;;;;;;6.65;5.95;;;7.90;99.90;;;;;;6106101;23;20211;-72
2022/12/20 11:05:39;;;;;;;6.25;5.65;;;8.00;99.90;;;;;;6101699;23;20240;-80
2022/12/20 11:08:15;;;;;;;7.55;6.68;;;8.00;99.90;;;;;;6088307;23;20261;-72
2022/12/20 11:10:43;;;;;;;6.28;5.78;;;8.00;99.90;;;;;;6106288;23;20219;-71
2022/12/20 11:13:22;;;;;;;6.40;5.80;;;8.10;99.90;;;;;;6116061;23;20204;-73
2022/12/20 11:15:53;;;;;;;6.60;5.90;;;8.10;99.90;;;;;;6116304;23;21134;-72
2022/12/20 11:18:30;;;;;;;6.40;5.90;;;8.10;99.90;;;;;;6118596;23;20273;-72
2022/12/20 11:21:03;;;;;;;6.90;6.05;;;8.10;99.90;;;;;;6116788;23;20276;-72
2022/12/20 11:23:38;;;;;;;7.13;6.43;;;8.10;99.90;;;;;;6091026;23;20222;-72
2022/12/20 11:26:20;;;;;;;8.13;6.60;;;8.10;99.90;;;;;;6109716;23;20199;-72
2022/12/20 11:29:02;;;;;;;10.38;6.57;;;8.10;99.90;;;;;;6118912;23;20198;-72
2022/12/20 11:31:44;;;;;;;7.78;5.88;;;8.10;99.90;;;;;;6103024;23;20527;-72
2022/12/20 11:34:24;;;;;;;7.22;6.30;;;8.20;99.90;;;;;;6115373;23;20559;-72
2022/12/20 11:37:07;;;;;;;7.40;6.60;;;8.20;99.90;;;;;;6115998;23;20268;-72
2022/12/20 11:39:44;;;;;;;7.22;6.50;;;8.30;99.90;;;;;;6103838;23;20220;-72
2022/12/20 11:42:19;;;;;;;6.88;6.15;;;8.30;99.90;;;;;;6115471;23;20189;-70
2022/12/20 11:44:57;;;;;;;7.03;6.32;;;8.30;99.90;;;;;;6107100;23;20214;-71
2022/12/20 11:47:47;;;;;;;6.47;5.88;;;8.30;99.90;;;;;;6097788;23;20194;-71
2022/12/20 11:50:32;;;;;;;6.43;5.93;;;8.20;99.90;;;;;;6112234;23;20197;-73
2022/12/20 11:53:02;;;;;;;6.63;6.03;;;8.20;99.90;;;;;;6118358;23;20194;-73
2022/12/20 11:55:33;;;;;;;6.68;6.07;;;8.20;99.90;;;;;;6109719;23;20272;-71
2022/12/20 11:58:07;;;;;;;7.72;6.70;;;8.20;99.90;;;;;;6103666;23;20601;-72
2022/12/20 12:00:36;;;;;;;6.75;5.95;;;8.30;99.90;;;;;;6089756;23;20198;-74
2022/12/20 12:03:11;;;;;;;7.20;6.13;;;8.30;99.90;;;;;;6106098;23;20637;-73
2022/12/20 12:05:44;;;;;;;7.15;6.45;;;8.20;99.90;;;;;;6114187;23;20194;-73
2022/12/20 12:08:18;;;;;;;8.18;6.32;;;8.20;99.90;;;;;;6106405;23;20269;-72
2022/12/20 12:10:54;;;;;;;6.55;6.00;;;8.20;99.90;;;;;;6101197;23;20252;-71
2022/12/20 12:13:27;;;;;;;7.68;6.97;;;8.30;99.90;;;;;;6102768;23;20187;-71
2022/12/20 12:15:58;;;;;;;7.47;6.72;;;8.30;99.90;;;;;;6114635;23;20194;-71
2022/12/20 12:18:29;;;;;;;6.80;6.20;;;8.20;99.90;;;;;;6109835;23;20254;-71
2022/12/20 12:21:03;;;;;;;7.70;6.85;;;8.20;99.90;;;;;;6106021;23;20664;-71
2022/12/20 12:23:36;;;;;;;7.40;6.70;;;8.20;99.90;;;;;;6115207;23;20544;-72
2022/12/20 12:26:11;;;;;;;8.75;7.50;;;8.10;99.90;;;;;;6113356;23;20279;-70
2022/12/20 12:28:39;;;;;;;8.10;7.00;;;8.10;99.90;;;;;;6106844;23;20663;-71
2022/12/20 12:31:11;;;;;;;7.10;6.40;;;8.20;99.90;;;;;;6111517;23;20237;-71
2022/12/20 12:33:46;;;;;;;7.60;6.80;;;8.20;99.90;;;;;;6114546;23;20253;-71
2022/12/20 12:36:36;;;;;;;9.40;7.15;;;8.20;99.90;;;;;;6108450;23;20585;-71
2022/12/20 12:39:20;;;;;;;6.97;6.38;;;8.30;99.90;;;;;;6106470;23;20576;-72
2022/12/20 12:42:08;;;;;;;7.53;6.30;;;8.30;99.90;;;;;;6118577;23;20251;-70
2022/12/20 12:44:45;;;;;;;7.97;6.60;;;8.30;99.90;;;;;;6115747;23;20190;-71
2022/12/20 12:47:16;;;;;;;8.85;6.45;;;8.40;99.90;;;;;;6113680;23;20213;-73
2022/12/20 12:49:48;;;;;;;7.18;6.45;;;8.40;99.90;;;;;;6118366;23;20201;-74
2022/12/20 12:52:30;;;;;;;9.48;7.07;;;8.40;99.90;;;;;;6101869;23;20238;-74
2022/12/20 12:54:58;;;;;;;7.35;6.65;;;8.40;99.90;;;;;;6111792;23;20207;-74
2022/12/20 12:57:26;;;;;;;7.75;6.90;;;8.50;99.90;;;;;;6109614;23;20183;-74
2022/12/20 12:59:53;;;;;;;7.97;7.00;;;8.50;99.90;;;;;;6114994;23;20187;-73
2022/12/20 13:02:27;;;;;;;7.80;6.50;;;8.50;99.90;;;;;;6109964;23;20672;-77
2022/12/20 13:04:56;;;;;;;6.88;6.10;;;8.50;99.90;;;;;;6109661;23;20193;-79
2022/12/20 13:07:43;;;;;;;7.45;6.85;;;8.60;99.90;;;;;;6103067;23;20531;-78
2022/12/20 13:10:56;;;;;;;7.18;5.80;;;8.60;99.90;;;;;;6092165;23;20247;-77